Time;durP1;ratioP1;P1;durP2;ratioP2;P2;SDS_P1;SDS_P2;PMS_P1;PMS_P2;Temp;Humidity;BMP_temperature;BMP_pressure;BME280_temperature;BME280_humidity;BME280_pressure;Samples;Min_cycle;Max_cycle;Signal;HPM_P1;HPM_P2
2022/09/15 00:00:53;;;;;;;8.45;3.00;;;18.80;99.90;;;;;;5061560;28;20028;-79
2022/09/15 00:03:20;;;;;;;7.43;2.78;;;18.90;99.90;;;;;;5061559;28;20371;-79
2022/09/15 00:05:49;;;;;;;6.10;2.97;;;18.90;99.90;;;;;;5066996;28;20027;-78
2022/09/15 00:08:15;;;;;;;6.43;3.05;;;18.90;99.90;;;;;;5064398;28;20542;-79
2022/09/15 00:10:54;;;;;;;5.43;2.92;;;18.90;99.90;;;;;;5069018;28;20037;-79
2022/09/15 00:13:21;;;;;;;8.20;2.70;;;19.00;99.90;;;;;;5067688;28;20473;-79
2022/09/15 00:15:47;;;;;;;5.85;2.58;;;19.00;99.90;;;;;;5073873;28;20029;-78
2022/09/15 00:18:19;;;;;;;9.30;2.75;;;19.00;99.90;;;;;;5070136;28;20493;-79
2022/09/15 00:20:45;;;;;;;3.92;2.50;;;19.00;99.90;;;;;;5074610;28;20029;-79
2022/09/15 00:23:12;;;;;;;4.47;2.42;;;19.00;99.90;;;;;;5073728;28;20112;-79
2022/09/15 00:25:43;;;;;;;8.35;3.08;;;19.00;99.90;;;;;;5076676;28;20024;-79
2022/09/15 00:28:09;;;;;;;6.57;2.80;;;19.00;99.90;;;;;;5077637;28;20028;-79
2022/09/15 00:30:42;;;;;;;3.65;2.33;;;19.10;99.90;;;;;;5070575;28;20486;-79
2022/09/15 00:33:08;;;;;;;8.38;2.80;;;19.00;99.90;;;;;;5061309;28;20036;-79
2022/09/15 00:35:43;;;;;;;6.78;2.63;;;19.10;99.90;;;;;;5060307;28;20120;-78
2022/09/15 00:38:10;;;;;;;7.53;3.25;;;19.10;99.90;;;;;;5065526;28;20044;-78
2022/09/15 00:40:45;;;;;;;5.97;2.65;;;19.10;99.90;;;;;;5062947;28;20039;-79
2022/09/15 00:43:14;;;;;;;8.35;2.80;;;19.00;99.90;;;;;;5069029;28;20029;-79
2022/09/15 00:45:40;;;;;;;6.45;3.08;;;19.00;99.90;;;;;;5064192;28;20500;-79
2022/09/15 00:48:10;;;;;;;9.75;2.70;;;19.10;99.90;;;;;;5076156;28;20047;-79
2022/09/15 00:50:38;;;;;;;5.82;2.70;;;19.10;99.90;;;;;;5070004;28;20009;-79
2022/09/15 00:53:07;;;;;;;12.95;3.53;;;19.10;99.90;;;;;;5064169;28;20021;-79
2022/09/15 00:55:46;;;;;;;6.55;2.42;;;19.10;99.90;;;;;;5073755;28;20074;-79
2022/09/15 00:58:24;;;;;;;5.93;2.80;;;19.10;99.90;;;;;;5077111;28;20033;-79
2022/09/15 01:00:55;;;;;;;8.93;2.50;;;19.00;99.90;;;;;;5072170;28;20074;-80
2022/09/15 01:03:23;;;;;;;6.45;2.90;;;19.00;99.90;;;;;;5059116;28;20032;-79
2022/09/15 01:06:00;;;;;;;7.35;2.42;;;19.00;99.90;;;;;;5060771;28;20047;-79
2022/09/15 01:08:33;;;;;;;4.78;2.92;;;19.00;99.90;;;;;;5076887;28;20503;-79
2022/09/15 01:11:00;;;;;;;10.88;2.83;;;19.00;99.90;;;;;;5063405;28;20073;-79
2022/09/15 01:13:28;;;;;;;16.40;3.30;;;19.00;99.90;;;;;;5062904;28;20028;-79
2022/09/15 01:16:26;;;;;;;5.38;2.92;;;19.00;99.90;;;;;;5066325;28;20028;-78
2022/09/15 01:19:09;;;;;;;4.97;2.85;;;19.00;99.90;;;;;;5056922;28;20110;-78
2022/09/15 01:21:54;;;;;;;8.88;3.85;;;19.00;99.90;;;;;;5066247;28;20021;-79
2022/09/15 01:24:23;;;;;;;8.15;3.13;;;18.90;99.90;;;;;;5070608;28;20035;-78
2022/09/15 01:27:07;;;;;;;8.23;3.00;;;19.00;99.90;;;;;;5070913;28;20017;-79
2022/09/15 01:29:54;;;;;;;5.68;3.00;;;19.00;99.90;;;;;;5071685;28;20024;-79
2022/09/15 01:33:05;;;;;;;9.93;3.35;;;18.90;99.90;;;;;;5066596;28;20029;-79
2022/09/15 01:35:34;;;;;;;;;;;18.90;99.90;;;;;;5066568;28;20043;-79
2022/09/15 01:38:09;;;;;;;8.25;3.85;;;18.90;99.90;;;;;;5060561;28;19916;-79
2022/09/15 01:40:59;;;;;;;7.70;3.72;;;18.90;99.90;;;;;;5058779;28;20086;-79
2022/09/15 01:43:26;;;;;;;7.55;2.80;;;18.80;99.90;;;;;;5059207;28;20041;-79
2022/09/15 01:45:55;;;;;;;5.72;2.67;;;18.80;99.90;;;;;;5060747;28;20017;-78
2022/09/15 01:48:24;;;;;;;12.77;3.45;;;18.80;99.90;;;;;;5072725;28;20107;-79
2022/09/15 01:50:57;;;;;;;6.38;3.05;;;18.80;99.90;;;;;;5066908;28;20016;-79
2022/09/15 01:53:24;;;;;;;10.07;3.45;;;18.80;99.90;;;;;;5072548;28;20082;-79
2022/09/15 01:56:01;;;;;;;9.07;3.35;;;18.80;99.90;;;;;;5072579;28;20021;-79
2022/09/15 01:58:27;;;;;;;9.98;4.15;;;18.80;99.90;;;;;;5074629;28;20401;-79
2022/09/15 02:01:03;;;;;;;7.40;3.22;;;18.80;99.90;;;;;;5072019;28;20051;-79
2022/09/15 02:03:41;;;;;;;6.93;3.53;;;18.70;99.90;;;;;;5056236;28;20033;-78
2022/09/15 02:06:13;;;;;;;8.95;3.50;;;18.70;99.90;;;;;;5059106;28;20031;-79
2022/09/15 02:08:46;;;;;;;7.97;3.20;;;18.70;99.90;;;;;;5062207;28;20477;-79
2022/09/15 02:11:18;;;;;;;10.48;3.95;;;18.60;99.90;;;;;;5062226;28;20029;-79
2022/09/15 02:14:09;;;;;;;10.57;3.55;;;18.60;99.90;;;;;;5066070;28;20031;-79
2022/09/15 02:16:37;;;;;;;4.20;2.78;;;18.50;99.90;;;;;;5069653;28;20031;-79
2022/09/15 02:19:19;;;;;;;9.15;2.85;;;18.50;99.90;;;;;;5070009;28;20542;-79
2022/09/15 02:22:06;;;;;;;5.85;2.88;;;18.60;99.90;;;;;;5070944;28;20036;-79
2022/09/15 02:24:43;;;;;;;11.30;3.50;;;18.60;99.90;;;;;;5068315;28;20025;-79
2022/09/15 02:27:15;;;;;;;5.13;3.15;;;18.50;99.90;;;;;;5079024;28;20048;-79
2022/09/15 02:29:45;;;;;;;5.35;3.40;;;18.60;99.90;;;;;;5070500;28;20473;-79
2022/09/15 02:32:14;;;;;;;8.85;3.47;;;18.60;99.90;;;;;;5072948;28;20520;-79
2022/09/15 02:34:50;;;;;;;8.93;3.20;;;18.60;99.90;;;;;;5073584;28;20051;-79
2022/09/15 02:37:22;;;;;;;8.15;2.97;;;18.60;99.90;;;;;;5065184;28;20099;-79
2022/09/15 02:39:53;;;;;;;6.35;3.08;;;18.60;99.90;;;;;;5058303;28;20074;-79
2022/09/15 02:42:28;;;;;;;9.32;3.75;;;18.60;99.90;;;;;;5058635;28;20485;-79
2022/09/15 02:44:54;;;;;;;7.97;3.65;;;18.60;99.90;;;;;;5061208;28;20024;-78
2022/09/15 02:47:21;;;;;;;5.55;3.17;;;18.60;99.90;;;;;;5064960;28;20017;-78
2022/09/15 02:49:47;;;;;;;8.60;3.72;;;18.60;99.90;;;;;;5075003;28;20020;-78
2022/09/15 02:52:12;;;;;;;9.20;3.78;;;18.60;99.90;;;;;;5069797;28;20115;-79
2022/09/15 02:54:38;;;;;;;6.32;3.63;;;18.60;99.90;;;;;;5073833;28;20025;-79
2022/09/15 02:57:05;;;;;;;6.07;3.08;;;18.60;99.90;;;;;;5073383;28;20028;-79
2022/09/15 03:00:11;;;;;;;7.90;4.53;;;18.60;99.90;;;;;;5075440;28;20021;-79
2022/09/15 03:02:19;;;;;;;9.15;3.55;;;18.60;99.90;;;;;;5073350;28;20037;-79
2022/09/15 03:04:46;;;;;;;16.42;4.18;;;18.60;99.90;;;;;;5055766;28;20032;-79
2022/09/15 03:07:14;;;;;;;7.90;3.33;;;18.60;99.90;;;;;;5060041;28;20078;-79
2022/09/15 03:09:40;;;;;;;5.57;2.75;;;18.60;99.90;;;;;;5059052;28;20060;-79
2022/09/15 03:12:06;;;;;;;7.53;2.92;;;18.70;99.90;;;;;;5061867;28;20028;-79
2022/09/15 03:14:32;;;;;;;7.75;3.38;;;18.70;99.90;;;;;;5061298;28;20178;-79
2022/09/15 03:16:59;;;;;;;12.90;3.63;;;18.70;99.90;;;;;;5068698;28;20507;-79
2022/09/15 03:19:27;;;;;;;8.90;4.25;;;18.70;99.90;;;;;;5069956;28;20025;-79
2022/09/15 03:21:53;;;;;;;9.13;3.47;;;18.70;99.90;;;;;;5069776;28;20038;-79
2022/09/15 03:24:21;;;;;;;11.38;3.45;;;18.70;99.90;;;;;;5073283;28;20459;-79
2022/09/15 03:26:48;;;;;;;6.80;3.50;;;18.70;99.90;;;;;;5073573;28;20472;-79
2022/09/15 03:29:14;;;;;;;8.07;3.15;;;18.70;99.90;;;;;;5076481;28;20023;-79
2022/09/15 03:31:40;;;;;;;6.57;2.97;;;18.80;99.90;;;;;;5073691;28;20016;-80
2022/09/15 03:34:09;;;;;;;4.68;2.90;;;18.80;99.90;;;;;;5077501;28;20500;-79
2022/09/15 03:36:37;;;;;;;9.98;3.17;;;18.70;99.90;;;;;;5074527;28;20056;-79
2022/09/15 03:39:03;;;;;;;6.63;3.85;;;18.80;99.90;;;;;;5059154;28;20028;-79
2022/09/15 03:41:29;;;;;;;7.82;3.50;;;18.80;99.90;;;;;;5063014;28;20035;-79
2022/09/15 03:43:55;;;;;;;9.23;3.70;;;18.70;99.90;;;;;;5061832;28;20386;-79
2022/09/15 03:46:21;;;;;;;8.25;3.45;;;18.80;99.90;;;;;;5066374;28;20028;-78
2022/09/15 03:48:47;;;;;;;7.65;4.00;;;18.70;99.90;;;;;;5072208;28;20020;-79
2022/09/15 03:51:13;;;;;;;9.32;3.58;;;18.70;99.90;;;;;;5073276;28;20453;-79
2022/09/15 03:53:43;;;;;;;5.32;2.97;;;18.70;99.90;;;;;;5073436;28;20059;-78
2022/09/15 03:56:23;;;;;;;9.45;3.60;;;18.70;99.90;;;;;;5073649;28;20086;-79
2022/09/15 03:58:50;;;;;;;7.35;3.33;;;18.70;99.90;;;;;;5076089;28;20028;-79
2022/09/15 04:01:19;;;;;;;6.05;3.20;;;18.70;99.90;;;;;;5065542;28;20116;-79
2022/09/15 04:03:45;;;;;;;5.78;3.35;;;18.70;99.90;;;;;;5064291;28;20029;-79
2022/09/15 04:06:11;;;;;;;7.95;3.53;;;18.70;99.90;;;;;;5060291;28;20029;-79
2022/09/15 04:08:37;;;;;;;5.43;3.28;;;18.70;99.90;;;;;;5059911;28;20028;-80
2022/09/15 04:11:16;;;;;;;7.45;3.28;;;18.70;99.90;;;;;;5063781;28;20481;-80
2022/09/15 04:13:42;;;;;;;11.68;3.05;;;18.70;99.90;;;;;;5064286;28;20510;-79
2022/09/15 04:16:14;;;;;;;5.55;2.53;;;18.70;99.90;;;;;;5065451;28;20029;-79
2022/09/15 04:18:40;;;;;;;7.07;2.83;;;18.60;99.90;;;;;;5069320;28;20507;-79
2022/09/15 04:21:10;;;;;;;8.70;3.38;;;18.70;99.90;;;;;;5069506;28;21251;-79
2022/09/15 04:23:36;;;;;;;7.95;3.42;;;18.70;99.90;;;;;;5069727;28;20028;-78
2022/09/15 04:26:10;;;;;;;6.10;3.60;;;18.70;99.90;;;;;;5072580;28;20016;-79
2022/09/15 04:28:37;;;;;;;6.18;3.17;;;18.60;99.90;;;;;;5072742;28;20078;-80
2022/09/15 04:31:04;;;;;;;6.57;3.30;;;18.60;99.90;;;;;;5074291;28;20020;-79
2022/09/15 04:33:31;;;;;;;7.95;3.78;;;18.60;99.90;;;;;;5075226;28;20024;-79
2022/09/15 04:36:03;;;;;;;8.68;3.33;;;18.60;99.90;;;;;;5076610;28;20106;-79
2022/09/15 04:38:29;;;;;;;7.40;3.22;;;18.50;99.90;;;;;;5059577;28;20440;-79
2022/09/15 04:40:55;;;;;;;10.48;3.80;;;18.50;99.90;;;;;;5058995;28;20056;-79
2022/09/15 04:43:23;;;;;;;5.75;3.80;;;18.50;99.90;;;;;;5063267;28;20021;-79
2022/09/15 04:45:50;;;;;;;6.70;3.83;;;18.50;99.90;;;;;;5062342;28;20036;-79
2022/09/15 04:48:18;;;;;;;4.72;2.97;;;18.50;99.90;;;;;;5073929;28;20020;-79
2022/09/15 04:50:44;;;;;;;10.32;3.35;;;18.50;99.90;;;;;;5070120;28;20064;-80
2022/09/15 04:53:10;;;;;;;7.22;3.28;;;18.50;99.90;;;;;;5078208;28;20975;-79
2022/09/15 04:55:36;;;;;;;9.15;4.10;;;18.50;99.90;;;;;;5075335;28;20028;-79
2022/09/15 04:58:02;;;;;;;7.63;3.72;;;18.50;99.90;;;;;;5060147;28;20100;-79
2022/09/15 05:00:30;;;;;;;7.90;3.53;;;18.50;99.90;;;;;;5071223;28;20024;-79
2022/09/15 05:02:57;;;;;;;8.63;4.07;;;18.40;99.90;;;;;;5075227;28;20393;-79
2022/09/15 05:05:25;;;;;;;5.15;3.80;;;18.50;99.90;;;;;;5072150;28;20516;-79
2022/09/15 05:07:52;;;;;;;8.13;3.53;;;18.50;99.90;;;;;;5077738;28;20020;-79
2022/09/15 05:10:19;;;;;;;8.52;3.83;;;18.50;99.90;;;;;;5076210;28;20025;-79
2022/09/15 05:12:45;;;;;;;7.63;4.97;;;18.50;99.90;;;;;;5059141;28;20017;-79
2022/09/15 05:15:11;;;;;;;7.15;4.00;;;18.40;99.90;;;;;;5059698;28;20116;-79
2022/09/15 05:17:37;;;;;;;10.07;4.70;;;18.40;99.90;;;;;;5059559;28;20013;-79
2022/09/15 05:20:06;;;;;;;9.23;3.75;;;18.40;99.90;;;;;;5063577;28;20409;-79
2022/09/15 05:22:32;;;;;;;8.48;4.45;;;18.40;99.90;;;;;;5063053;28;20482;-79
2022/09/15 05:24:58;;;;;;;6.90;3.65;;;18.40;99.90;;;;;;5072412;28;20046;-79
2022/09/15 05:27:24;;;;;;;7.25;3.65;;;18.50;99.90;;;;;;5069094;28;20389;-79
2022/09/15 05:29:52;;;;;;;6.85;4.07;;;18.50;99.90;;;;;;5067724;28;20029;-79
2022/09/15 05:32:18;;;;;;;8.18;3.85;;;18.50;99.90;;;;;;5075429;28;20021;-79
2022/09/15 05:34:43;;;;;;;5.88;4.30;;;18.50;99.90;;;;;;5073946;28;20025;-79
2022/09/15 05:37:10;;;;;;;8.55;4.15;;;18.50;99.90;;;;;;5067934;28;20087;-79
2022/09/15 05:39:36;;;;;;;5.95;4.25;;;18.50;99.90;;;;;;5066195;28;20047;-79
2022/09/15 05:42:02;;;;;;;8.30;4.60;;;18.50;99.90;;;;;;5071963;28;20480;-79
2022/09/15 05:44:30;;;;;;;8.52;4.03;;;18.50;99.90;;;;;;5068268;28;20052;-79
2022/09/15 05:46:56;;;;;;;10.18;5.40;;;18.50;99.90;;;;;;5073992;28;20051;-79
2022/09/15 05:49:22;;;;;;;8.27;4.65;;;18.50;99.90;;;;;;5074090;28;20611;-79
2022/09/15 05:51:48;;;;;;;10.50;4.25;;;18.60;99.90;;;;;;5076597;28;20017;-79
2022/09/15 05:54:14;;;;;;;10.20;4.50;;;18.60;99.90;;;;;;5073458;28;20020;-79
2022/09/15 05:56:40;;;;;;;6.78;4.45;;;18.60;99.90;;;;;;5058837;28;20068;-79
2022/09/15 05:59:05;;;;;;;7.55;4.15;;;18.70;99.90;;;;;;5061609;28;20032;-79
2022/09/15 06:01:32;;;;;;;5.97;4.00;;;18.80;99.90;;;;;;5060200;28;20025;-79
2022/09/15 06:03:58;;;;;;;6.35;4.53;;;18.80;99.90;;;;;;5063768;28;20404;-79
2022/09/15 06:06:25;;;;;;;9.90;5.03;;;18.90;99.90;;;;;;5072388;28;20021;-79
2022/09/15 06:08:56;;;;;;;7.05;4.13;;;19.00;99.90;;;;;;5066763;28;20393;-79
2022/09/15 06:11:27;;;;;;;5.57;4.38;;;19.00;99.90;;;;;;5067709;28;20067;-79
2022/09/15 06:13:53;;;;;;;7.95;3.85;;;19.10;99.90;;;;;;5069579;28;20029;-79
2022/09/15 06:16:22;;;;;;;8.02;4.25;;;19.10;99.90;;;;;;5075046;28;20493;-79
2022/09/15 06:18:49;;;;;;;7.18;4.57;;;19.20;99.90;;;;;;5071772;28;20097;-79
2022/09/15 06:21:16;;;;;;;10.43;4.35;;;19.20;99.90;;;;;;5076506;28;20035;-79
2022/09/15 06:23:43;;;;;;;12.57;5.20;;;19.20;99.90;;;;;;5069463;28;20028;-79
2022/09/15 06:26:16;;;;;;;8.38;4.30;;;19.20;99.90;;;;;;5066809;28;20021;-79
2022/09/15 06:28:56;;;;;;;7.35;4.68;;;19.20;99.90;;;;;;5072193;28;20024;-79
2022/09/15 06:31:24;;;;;;;7.28;4.65;;;19.30;99.90;;;;;;5071645;28;20024;-80
2022/09/15 06:33:54;;;;;;;6.30;4.78;;;19.20;99.90;;;;;;5075060;28;20040;-79
2022/09/15 06:36:23;;;;;;;11.82;5.32;;;19.30;99.90;;;;;;5075067;28;20706;-79
2022/09/15 06:38:50;;;;;;;7.07;4.03;;;19.30;99.90;;;;;;5065497;28;20061;-79
2022/09/15 06:41:16;;;;;;;17.48;4.55;;;19.40;99.90;;;;;;5057416;28;20031;-79
2022/09/15 06:43:43;;;;;;;8.02;5.00;;;19.50;99.90;;;;;;5057380;28;20071;-79
2022/09/15 06:46:17;;;;;;;62.53;43.47;;;19.50;99.90;;;;;;5062367;28;20017;-79
2022/09/15 06:48:43;;;;;;;9.57;4.80;;;19.40;99.90;;;;;;5074771;28;20021;-79
2022/09/15 06:51:11;;;;;;;15.05;6.15;;;19.40;99.90;;;;;;5072855;28;20506;-79
2022/09/15 06:53:38;;;;;;;13.20;5.80;;;19.50;99.90;;;;;;5079219;28;20035;-79
2022/09/15 06:56:10;;;;;;;9.43;5.63;;;19.50;99.90;;;;;;5077980;28;20020;-79
2022/09/15 06:58:38;;;;;;;7.55;5.32;;;19.60;99.90;;;;;;5065883;28;20029;-80
2022/09/15 07:01:12;;;;;;;14.50;4.82;;;19.70;99.90;;;;;;5078571;28;20013;-79
2022/09/15 07:03:42;;;;;;;10.80;4.32;;;19.60;99.90;;;;;;5079149;28;20039;-79
2022/09/15 07:06:10;;;;;;;16.60;5.47;;;19.80;99.90;;;;;;5071759;28;20067;-79
2022/09/15 07:08:37;;;;;;;11.82;4.68;;;19.90;99.90;;;;;;5074808;28;20095;-79
2022/09/15 07:11:03;;;;;;;8.68;4.43;;;20.00;99.90;;;;;;5061614;28;20041;-79
2022/09/15 07:13:29;;;;;;;9.77;4.93;;;20.00;99.90;;;;;;5064601;28;20025;-79
2022/09/15 07:15:58;;;;;;;14.07;4.80;;;20.10;99.90;;;;;;5066449;28;20052;-79
2022/09/15 07:18:25;;;;;;;10.23;5.68;;;20.10;99.90;;;;;;5066345;28;20017;-80
2022/09/15 07:20:51;;;;;;;10.50;4.50;;;20.10;99.90;;;;;;5069565;28;20480;-79
2022/09/15 07:23:19;;;;;;;9.10;4.72;;;20.10;99.90;;;;;;5068264;28;20033;-79
2022/09/15 07:25:45;;;;;;;14.02;4.78;;;20.20;99.90;;;;;;5077776;28;20033;-80
2022/09/15 07:28:11;;;;;;;7.85;4.97;;;20.10;99.90;;;;;;5073930;28;20424;-79
2022/09/15 07:30:38;;;;;;;25.75;5.47;;;20.10;99.90;;;;;;5077331;28;20107;-79
2022/09/15 07:33:05;;;;;;;15.40;5.22;;;20.10;99.90;;;;;;5076541;28;20473;-80
2022/09/15 07:35:31;;;;;;;12.85;5.55;;;20.10;99.90;;;;;;5068178;28;20831;-79
2022/09/15 07:37:57;;;;;;;17.80;5.55;;;20.10;99.90;;;;;;5069628;28;20021;-79
2022/09/15 07:40:26;;;;;;;10.25;4.85;;;20.20;99.90;;;;;;5073549;28;20024;-79
2022/09/15 07:42:52;;;;;;;15.35;4.60;;;20.30;99.90;;;;;;5075518;28;20029;-79
2022/09/15 07:45:18;;;;;;;12.00;4.20;;;20.30;99.90;;;;;;5075888;28;20017;-79
2022/09/15 07:47:44;;;;;;;17.75;3.85;;;20.30;99.90;;;;;;5072813;28;20017;-79
2022/09/15 07:50:13;;;;;;;14.38;3.30;;;20.40;99.90;;;;;;5077973;28;20042;-79
2022/09/15 07:52:38;;;;;;;8.43;2.40;;;20.50;99.90;;;;;;5075425;28;20021;-80
2022/09/15 07:55:05;;;;;;;6.68;2.53;;;20.50;99.90;;;;;;5060487;28;20431;-80
2022/09/15 07:57:31;;;;;;;7.07;2.80;;;20.60;99.90;;;;;;5063616;28;20031;-80
2022/09/15 08:00:08;;;;;;;5.40;2.75;;;20.70;99.90;;;;;;5070687;28;20393;-80
2022/09/15 08:02:34;;;;;;;6.10;2.95;;;20.70;99.90;;;;;;5077685;28;20013;-80
2022/09/15 08:05:00;;;;;;;12.98;3.45;;;20.70;99.90;;;;;;5077431;28;20025;-80
2022/09/15 08:07:26;;;;;;;9.88;3.25;;;20.70;99.90;;;;;;5068452;28;20488;-80
2022/09/15 08:09:56;;;;;;;7.72;3.20;;;20.80;99.90;;;;;;5073002;28;20108;-81
2022/09/15 08:12:25;;;;;;;7.78;3.58;;;20.90;99.90;;;;;;5092728;28;20016;-81
2022/09/15 08:14:53;;;;;;;5.95;3.20;;;21.00;99.90;;;;;;5078550;28;20107;-81
2022/09/15 08:17:19;;;;;;;6.72;3.25;;;21.10;99.90;;;;;;5065213;28;20580;-80
2022/09/15 08:19:47;;;;;;;11.80;3.53;;;21.30;99.90;;;;;;5066766;28;20179;-80
2022/09/15 08:22:13;;;;;;;6.88;3.03;;;21.40;99.90;;;;;;5065344;28;20032;-80
2022/09/15 08:24:42;;;;;;;12.32;3.58;;;21.50;99.90;;;;;;5067399;28;20020;-80
2022/09/15 08:27:09;;;;;;;9.02;3.05;;;21.70;99.90;;;;;;5067827;28;20070;-80
2022/09/15 08:29:35;;;;;;;7.30;2.75;;;21.80;99.90;;;;;;5066169;28;20045;-80
2022/09/15 08:32:01;;;;;;;5.68;2.17;;;21.90;99.90;;;;;;5072295;28;20535;-79
2022/09/15 08:34:29;;;;;;;7.00;2.00;;;22.00;99.90;;;;;;5072536;28;20108;-80
2022/09/15 08:36:55;;;;;;;7.00;2.30;;;22.00;99.90;;;;;;5073806;28;20051;-80
2022/09/15 08:39:21;;;;;;;8.20;2.65;;;22.20;99.90;;;;;;5073252;28;20029;-79
2022/09/15 08:41:53;;;;;;;5.38;2.20;;;22.30;99.90;;;;;;5077169;28;20017;-81
2022/09/15 08:44:36;;;;;;;9.63;2.40;;;22.30;99.90;;;;;;5076938;28;20051;-79
2022/09/15 08:47:15;;;;;;;7.15;2.20;;;22.40;99.90;;;;;;5065973;28;20021;-81
2022/09/15 08:50:14;;;;;;;5.03;2.10;;;22.50;99.90;;;;;;5059720;28;20061;-80
2022/09/15 08:52:48;;;;;;;3.42;2.30;;;22.70;99.90;;;;;;5075981;28;20027;-79
2022/09/15 08:55:44;;;;;;;5.78;2.03;;;22.80;99.90;;;;;;5073458;28;20055;-79
2022/09/15 08:58:35;;;;;;;11.40;2.63;;;22.90;99.90;;;;;;5071077;28;20017;-78
2022/09/15 09:01:13;;;;;;;10.57;2.33;;;23.00;99.90;;;;;;5071749;28;20024;-81
2022/09/15 09:03:44;;;;;;;4.00;1.90;;;23.10;99.90;;;;;;5069373;28;20036;-80
2022/09/15 09:06:40;;;;;;;7.65;2.22;;;23.10;99.90;;;;;;5074193;28;20028;-78
2022/09/15 09:09:26;;;;;;;7.07;2.00;;;23.20;99.90;;;;;;5074431;28;20032;-78
2022/09/15 09:11:55;;;;;;;8.00;1.73;;;23.30;99.90;;;;;;5074420;28;20063;-77
2022/09/15 09:14:34;;;;;;;3.65;1.80;;;23.40;99.90;;;;;;5058436;28;20028;-78
2022/09/15 09:17:19;;;;;;;4.35;1.77;;;23.50;99.90;;;;;;5060414;28;20024;-78
2022/09/15 09:19:51;;;;;;;5.45;2.03;;;23.70;99.90;;;;;;5059096;28;20077;-81
2022/09/15 09:22:24;;;;;;;4.03;1.70;;;23.70;99.90;;;;;;5074667;28;20047;-80
2022/09/15 09:24:56;;;;;;;4.80;1.88;;;23.70;99.90;;;;;;5074389;28;20021;-80
2022/09/15 09:27:28;;;;;;;3.75;1.50;;;23.80;99.90;;;;;;5073073;28;20109;-77
2022/09/15 09:30:27;;;;;;;3.42;1.50;;;23.90;99.90;;;;;;5073936;28;20016;-79
2022/09/15 09:33:05;;;;;;;4.03;1.75;;;24.00;99.90;;;;;;5059757;28;20104;-77
2022/09/15 09:35:42;;;;;;;8.05;1.77;;;24.00;99.90;;;;;;5068027;28;20380;-79
2022/09/15 09:38:16;;;;;;;3.67;1.65;;;24.10;99.90;;;;;;5072913;28;20029;-78
2022/09/15 09:40:42;;;;;;;4.03;1.80;;;24.10;99.90;;;;;;5069764;28;20043;-78
2022/09/15 09:43:08;;;;;;;6.75;1.50;;;24.20;99.90;;;;;;5070074;28;20523;-78
2022/09/15 09:45:34;;;;;;;3.75;1.92;;;24.20;99.90;;;;;;5073261;28;20021;-79
2022/09/15 09:48:16;;;;;;;4.22;2.05;;;24.40;99.90;;;;;;5073060;28;20473;-81
2022/09/15 09:50:43;;;;;;;8.30;2.10;;;24.50;99.90;;;;;;5074531;28;20021;-79
2022/09/15 09:53:30;;;;;;;4.60;2.25;;;24.40;99.90;;;;;;5073584;28;20111;-80
2022/09/15 09:56:24;;;;;;;9.20;2.00;;;24.60;99.90;;;;;;5073491;28;20021;-81
2022/09/15 09:58:51;;;;;;;8.32;2.47;;;24.70;99.90;;;;;;5067974;28;20112;-79
2022/09/15 10:01:19;;;;;;;8.45;2.05;;;24.70;99.90;;;;;;5072357;28;20055;-81
2022/09/15 10:03:45;;;;;;;8.40;2.47;;;24.70;99.90;;;;;;5060993;28;20495;-78
2022/09/15 10:06:21;;;;;;;10.13;2.00;;;24.80;99.90;;;;;;5066133;28;20020;-79
2022/09/15 10:08:59;;;;;;;9.18;2.50;;;24.90;99.90;;;;;;5071945;28;20028;-79
2022/09/15 10:11:50;;;;;;;6.60;2.28;;;25.00;99.90;;;;;;5068811;28;20097;-79
2022/09/15 10:14:26;;;;;;;9.07;2.55;;;25.10;99.90;;;;;;5067627;28;20060;-78
2022/09/15 10:17:05;;;;;;;9.73;1.75;;;25.20;99.90;;;;;;5069976;28;20391;-80
2022/09/15 10:20:15;;;;;;;9.10;2.00;;;25.10;99.90;;;;;;5075206;28;20025;-79
2022/09/15 10:22:41;;;;;;;10.68;1.90;;;25.10;99.90;;;;;;5074896;28;20024;-79
2022/09/15 10:25:36;;;;;;;4.70;2.17;;;25.30;99.90;;;;;;5076316;28;20044;-78
2022/09/15 10:28:08;;;;;;;5.32;2.00;;;25.30;99.90;;;;;;5063204;28;20033;-78
2022/09/15 10:30:44;;;;;;;4.63;1.35;;;25.30;99.90;;;;;;5062780;28;20021;-80
2022/09/15 10:33:31;;;;;;;7.20;1.88;;;25.30;99.90;;;;;;5065478;28;20029;-79
2022/09/15 10:36:15;;;;;;;3.38;1.50;;;25.30;99.90;;;;;;5060120;28;20044;-78
2022/09/15 10:39:19;;;;;;;9.38;1.60;;;25.30;99.90;;;;;;5065018;28;20025;-81
2022/09/15 10:41:58;;;;;;;3.53;1.70;;;25.40;99.90;;;;;;5071377;28;20435;-79
2022/09/15 10:44:47;;;;;;;2.83;1.52;;;25.50;99.90;;;;;;5074126;28;20021;-79
2022/09/15 10:47:40;;;;;;;6.05;1.40;;;25.60;99.90;;;;;;5072702;28;20499;-79
2022/09/15 10:50:37;;;;;;;3.17;1.45;;;25.80;99.90;;;;;;5069494;28;20503;-79
2022/09/15 10:53:18;;;;;;;5.03;1.67;;;25.90;99.90;;;;;;5077446;28;20051;-79
2022/09/15 10:55:55;;;;;;;3.08;1.55;;;26.00;99.90;;;;;;5067700;28;20024;-79
2022/09/15 10:59:02;;;;;;;8.52;1.40;;;26.10;99.90;;;;;;5079419;28;20047;-80
2022/09/15 11:01:31;;;;;;;2.85;1.02;;;26.30;99.90;;;;;;5072033;28;20029;-77
2022/09/15 11:04:31;;;;;;;4.10;1.30;;;26.20;99.90;;;;;;5077463;28;20024;-78
2022/09/15 11:07:18;;;;;;;5.03;1.10;;;26.20;99.90;;;;;;5078959;28;20111;-78
2022/09/15 11:09:58;;;;;;;5.88;1.23;;;26.30;99.90;;;;;;5061631;28;20037;-77
2022/09/15 11:12:51;;;;;;;3.05;1.30;;;26.30;99.90;;;;;;5063113;28;20505;-77
2022/09/15 11:15:36;;;;;;;2.45;1.10;;;26.50;99.90;;;;;;5063627;28;20036;-76
2022/09/15 11:18:28;;;;;;;5.05;1.08;;;26.50;99.90;;;;;;5073549;28;20067;-77
2022/09/15 11:21:12;;;;;;;2.28;1.30;;;26.60;99.90;;;;;;5073055;28;20024;-76
2022/09/15 11:23:48;;;;;;;2.95;1.38;;;26.70;99.90;;;;;;5076374;28;20021;-78
2022/09/15 11:26:28;;;;;;;4.93;1.02;;;26.60;99.90;;;;;;5075856;28;20066;-77
2022/09/15 11:29:05;;;;;;;3.90;1.40;;;26.60;99.90;;;;;;5070167;28;20047;-77
2022/09/15 11:31:41;;;;;;;4.25;1.60;;;26.70;99.90;;;;;;5074213;28;20282;-76
2022/09/15 11:34:29;;;;;;;3.28;1.30;;;26.70;99.90;;;;;;5076830;28;20032;-78
2022/09/15 11:37:22;;;;;;;2.70;1.20;;;26.80;99.90;;;;;;5065725;28;20045;-76
2022/09/15 11:40:03;;;;;;;2.53;1.42;;;26.90;99.90;;;;;;5075766;28;20037;-77
2022/09/15 11:42:38;;;;;;;2.72;1.30;;;27.00;99.90;;;;;;5059722;28;20075;-76
2022/09/15 11:45:20;;;;;;;2.72;1.00;;;27.00;99.40;;;;;;5060623;28;20029;-78
2022/09/15 11:47:54;;;;;;;2.33;1.33;;;27.10;99.00;;;;;;5066007;28;20020;-77
2022/09/15 11:50:27;;;;;;;3.42;1.40;;;27.20;98.90;;;;;;5063943;28;20032;-77
2022/09/15 11:53:33;;;;;;;4.93;1.13;;;27.30;99.90;;;;;;5069666;28;20500;-79
2022/09/15 11:56:08;;;;;;;6.15;1.48;;;27.40;97.70;;;;;;5053059;28;20037;-78
2022/09/15 11:58:42;;;;;;;4.68;1.35;;;27.40;97.50;;;;;;5074046;28;20017;-76
2022/09/15 12:01:26;;;;;;;2.85;1.25;;;27.40;97.00;;;;;;5074481;28;20031;-77
2022/09/15 12:04:02;;;;;;;4.68;1.67;;;27.40;97.10;;;;;;5072802;28;20477;-77
2022/09/15 12:06:52;;;;;;;4.97;1.65;;;27.40;97.10;;;;;;5077298;28;20507;-77
2022/09/15 12:09:21;;;;;;;2.63;1.00;;;27.50;96.70;;;;;;5066033;28;20466;-77
2022/09/15 12:11:56;;;;;;;5.93;1.38;;;27.50;96.40;;;;;;5064914;28;20068;-77
2022/09/15 12:14:40;;;;;;;3.20;1.20;;;27.60;96.70;;;;;;5076881;28;20023;-78
2022/09/15 12:17:08;;;;;;;1.83;1.00;;;27.80;96.70;;;;;;5076064;28;20450;-77
2022/09/15 12:20:05;;;;;;;2.97;0.95;;;27.70;95.20;;;;;;5072867;28;20017;-77
2022/09/15 12:22:42;;;;;;;4.43;1.45;;;27.70;95.70;;;;;;5067911;28;20039;-77
2022/09/15 12:25:46;;;;;;;3.92;1.30;;;27.70;96.10;;;;;;5067452;28;20480;-76
2022/09/15 12:28:24;;;;;;;2.00;1.02;;;27.70;95.80;;;;;;5076856;28;20041;-76
2022/09/15 12:31:21;;;;;;;3.53;1.02;;;27.90;96.00;;;;;;5077073;28;20062;-77
2022/09/15 12:34:23;;;;;;;5.30;1.10;;;27.90;95.40;;;;;;5066211;28;20504;-78
2022/09/15 12:36:54;;;;;;;4.00;1.15;;;27.80;95.70;;;;;;5068904;28;20048;-79
2022/09/15 12:39:26;;;;;;;4.00;1.63;;;27.80;95.50;;;;;;5064293;28;20477;-77
2022/09/15 12:42:17;;;;;;;2.25;1.10;;;27.90;94.70;;;;;;5071570;28;20032;-76
2022/09/15 12:45:06;;;;;;;6.07;1.55;;;27.90;94.80;;;;;;5076872;28;20034;-78
2022/09/15 12:47:58;;;;;;;1.38;0.77;;;27.70;94.50;;;;;;5071915;28;20059;-78
2022/09/15 12:50:41;;;;;;;3.58;0.90;;;27.60;95.00;;;;;;5062354;28;20472;-77
2022/09/15 12:53:36;;;;;;;3.67;1.50;;;27.60;95.10;;;;;;5075852;28;20028;-79
2022/09/15 12:56:20;;;;;;;5.63;0.95;;;27.70;95.40;;;;;;5073880;28;20031;-76
2022/09/15 12:58:48;;;;;;;3.28;1.00;;;27.80;95.50;;;;;;5057793;28;20036;-77
2022/09/15 13:01:55;;;;;;;2.97;0.82;;;27.90;95.50;;;;;;5059854;28;20036;-78
2022/09/15 13:04:40;;;;;;;6.53;1.13;;;28.00;94.60;;;;;;5073390;28;20035;-75
2022/09/15 13:07:15;;;;;;;3.45;1.50;;;28.10;94.20;;;;;;5063368;28;20028;-79
2022/09/15 13:10:12;;;;;;;3.08;1.08;;;28.10;93.80;;;;;;5063926;28;20031;-76
2022/09/15 13:13:00;;;;;;;3.67;1.25;;;28.00;94.40;;;;;;5064381;28;20047;-78
2022/09/15 13:15:27;;;;;;;2.03;1.00;;;28.00;94.00;;;;;;5066105;28;20027;-76
2022/09/15 13:17:56;;;;;;;3.22;1.05;;;28.00;93.70;;;;;;5056520;28;20029;-75